Time;durP1;ratioP1;P1;durP2;ratioP2;P2;SDS_P1;SDS_P2;PMS_P1;PMS_P2;Temp;Humidity;BMP_temperature;BMP_pressure;BME280_temperature;BME280_humidity;BME280_pressure;Samples;Min_cycle;Max_cycle;Signal;HPM_P1;HPM_P2
2022/01/24 00:01:56;;;;;;;21.42;11.55;;;6.50;99.90;;;;;;5014769;28;20100;-73
2022/01/24 00:04:23;;;;;;;19.08;12.07;;;6.50;99.90;;;;;;5018761;28;20032;-73
2022/01/24 00:06:49;;;;;;;18.60;12.13;;;6.50;99.90;;;;;;5033057;28;20051;-73
2022/01/24 00:09:16;;;;;;;19.92;11.93;;;6.50;99.90;;;;;;5025784;28;20392;-73
2022/01/24 00:12:19;;;;;;;18.38;11.40;;;6.50;99.90;;;;;;5023556;28;20083;-73
2022/01/24 00:28:17;;;;;;;20.17;12.55;;;6.50;99.90;;;;;;5013641;28;20053;-73
2022/01/24 00:30:43;;;;;;;21.15;12.70;;;6.50;99.90;;;;;;5031352;28;20017;-73
2022/01/24 00:33:08;;;;;;;23.23;12.55;;;6.50;99.90;;;;;;5023008;28;20435;-73
2022/01/24 00:35:34;;;;;;;19.33;11.93;;;6.50;99.90;;;;;;5013461;28;20030;-73
2022/01/24 00:38:01;;;;;;;20.80;12.70;;;6.50;99.90;;;;;;5028000;28;20018;-73
2022/01/24 00:40:33;;;;;;;20.98;12.93;;;6.40;99.90;;;;;;5032721;28;20047;-73
2022/01/24 00:43:00;;;;;;;20.65;12.27;;;6.50;99.90;;;;;;5032876;28;20037;-73
2022/01/24 00:45:51;;;;;;;19.65;12.52;;;6.50;99.90;;;;;;5022457;28;20489;-73
2022/01/24 00:48:30;;;;;;;21.70;12.90;;;6.40;99.90;;;;;;5023381;28;20033;-73
2022/01/24 00:56:14;;;;;;;21.10;12.77;;;6.40;99.90;;;;;;5029398;28;20562;-73
2022/01/24 00:58:40;;;;;;;22.83;13.25;;;6.40;99.90;;;;;;5032455;28;20340;-73
2022/01/24 01:01:06;;;;;;;21.42;12.57;;;6.40;99.90;;;;;;5012465;28;20069;-73
2022/01/24 01:03:31;;;;;;;19.83;12.73;;;6.40;99.90;;;;;;5020993;28;20038;-73
2022/01/24 01:19:24;;;;;;;20.00;12.73;;;6.40;99.90;;;;;;5025372;28;20032;-73
2022/01/24 01:21:49;;;;;;;22.65;13.32;;;6.40;99.90;;;;;;5031661;28;20073;-73
2022/01/24 01:24:16;;;;;;;24.73;13.45;;;6.40;99.90;;;;;;5019154;28;20029;-73
2022/01/24 01:26:49;;;;;;;19.23;12.43;;;6.40;99.90;;;;;;5031666;28;20033;-73
2022/01/24 01:29:23;;;;;;;20.08;12.73;;;6.40;99.90;;;;;;5020581;28;20458;-73
2022/01/24 01:56:14;;;;;;;22.92;13.82;;;6.30;99.90;;;;;;4931983;29;20485;-73
2022/01/24 01:58:39;;;;;;;25.92;15.35;;;6.30;99.90;;;;;;4949615;29;20073;-73
2022/01/24 02:01:05;;;;;;;27.83;15.57;;;6.30;99.90;;;;;;4953892;28;20405;-73
2022/01/24 02:03:32;;;;;;;28.80;16.83;;;6.30;99.90;;;;;;4960330;28;20464;-73
2022/01/24 02:05:58;;;;;;;32.65;18.63;;;6.30;99.90;;;;;;4964050;28;20077;-73
2022/01/24 02:08:27;;;;;;;35.50;19.52;;;6.30;99.90;;;;;;4969868;28;20117;-73
2022/01/24 02:10:53;;;;;;;39.08;21.15;;;6.30;99.90;;;;;;4968430;28;20085;-73
2022/01/24 02:13:19;;;;;;;35.78;20.35;;;6.30;99.90;;;;;;4962840;28;20031;-73
2022/01/24 02:23:39;;;;;;;43.22;22.13;;;6.40;99.90;;;;;;5006295;28;20089;-73
2022/01/24 02:26:09;;;;;;;;;;;6.40;99.90;;;;;;4992142;28;20065;-73
2022/01/24 02:28:53;;;;;;;38.67;21.50;;;6.40;99.90;;;;;;4991921;28;20482;-73
2022/01/24 02:32:01;;;;;;;40.78;22.00;;;6.30;99.90;;;;;;4995477;28;20030;-73
2022/01/24 02:34:27;;;;;;;36.38;20.45;;;6.30;99.90;;;;;;4999760;28;20049;-73
2022/01/24 02:36:55;;;;;;;38.35;21.13;;;6.40;99.90;;;;;;5008329;28;20144;-73
2022/01/24 02:39:46;;;;;;;40.60;21.95;;;6.30;99.90;;;;;;4996482;28;20031;-73
2022/01/24 02:53:01;;;;;;;39.10;22.30;;;6.40;99.90;;;;;;4997037;28;20495;-74
2022/01/24 02:55:27;;;;;;;40.17;21.52;;;6.40;99.90;;;;;;4995858;28;20030;-73
2022/01/24 02:57:52;;;;;;;38.63;22.33;;;6.40;99.90;;;;;;4995454;28;20018;-73
2022/01/24 03:00:18;;;;;;;39.85;22.42;;;6.40;99.90;;;;;;5002423;28;20053;-73
2022/01/24 03:02:44;;;;;;;38.75;22.40;;;6.40;99.90;;;;;;5030476;28;20120;-73
2022/01/24 03:05:09;;;;;;;39.20;23.05;;;6.40;99.90;;;;;;5017230;28;20037;-73
2022/01/24 03:07:35;;;;;;;38.67;22.42;;;6.40;99.90;;;;;;5034124;28;20025;-73
2022/01/24 03:10:08;;;;;;;40.17;22.30;;;6.40;99.90;;;;;;5034240;28;20029;-73
2022/01/24 03:12:45;;;;;;;37.00;21.55;;;6.40;99.90;;;;;;5034338;28;20036;-73
2022/01/24 03:15:11;;;;;;;38.55;21.90;;;6.40;99.90;;;;;;5032823;28;20037;-73
2022/01/24 03:17:37;;;;;;;41.85;23.23;;;6.40;99.90;;;;;;5032476;28;20270;-74
2022/01/24 03:20:05;;;;;;;41.53;22.63;;;6.40;99.90;;;;;;5022839;28;20387;-73
2022/01/24 03:22:31;;;;;;;39.38;23.25;;;6.40;99.90;;;;;;5016062;28;20104;-74
2022/01/24 03:24:56;;;;;;;42.08;24.60;;;6.40;99.90;;;;;;5014266;28;20112;-73
2022/01/24 03:27:22;;;;;;;42.15;24.83;;;6.40;99.90;;;;;;5014598;28;20019;-73
2022/01/24 03:29:48;;;;;;;42.80;23.60;;;6.40;99.90;;;;;;5018241;28;20391;-74
2022/01/24 03:32:14;;;;;;;41.38;22.85;;;6.30;99.90;;;;;;5021076;28;20077;-73
2022/01/24 03:34:40;;;;;;;46.50;25.23;;;6.40;99.90;;;;;;5025966;28;20065;-73
2022/01/24 03:37:07;;;;;;;42.53;24.05;;;6.40;99.90;;;;;;5029044;28;20017;-73
2022/01/24 03:39:33;;;;;;;44.50;24.98;;;6.40;99.90;;;;;;5032447;28;20029;-73
2022/01/24 03:41:59;;;;;;;42.65;24.40;;;6.30;99.90;;;;;;5033407;28;20042;-73
2022/01/24 03:44:26;;;;;;;40.97;24.73;;;6.40;99.90;;;;;;5024293;28;20494;-74
2022/01/24 03:52:08;;;;;;;45.03;24.70;;;6.30;99.90;;;;;;5033403;28;20053;-73
2022/01/24 03:54:34;;;;;;;46.78;25.92;;;6.40;99.90;;;;;;5014091;28;20084;-74
2022/01/24 03:57:00;;;;;;;42.90;24.77;;;6.40;99.90;;;;;;5013712;28;20487;-73
2022/01/24 03:59:25;;;;;;;43.90;25.90;;;6.40;99.90;;;;;;5023503;28;20060;-73
2022/01/24 04:01:51;;;;;;;44.83;24.50;;;6.40;99.90;;;;;;5033217;28;20057;-73
2022/01/24 04:04:17;;;;;;;43.50;24.80;;;6.30;99.90;;;;;;5031874;28;20042;-73
2022/01/24 04:06:42;;;;;;;42.75;24.90;;;6.30;99.90;;;;;;5033613;28;20022;-73
2022/01/24 04:09:08;;;;;;;45.30;25.08;;;6.40;99.90;;;;;;5033123;28;20025;-73
2022/01/24 04:11:37;;;;;;;51.10;27.15;;;6.30;99.90;;;;;;5033018;28;20036;-74
2022/01/24 04:14:23;;;;;;;44.08;26.17;;;6.30;99.90;;;;;;5029094;28;20460;-73
2022/01/24 04:17:20;;;;;;;45.67;26.25;;;6.30;99.90;;;;;;5015489;28;20034;-73
2022/01/24 04:22:16;;;;;;;46.38;26.70;;;6.30;99.90;;;;;;5032600;28;20071;-73
2022/01/24 04:24:42;;;;;;;49.45;26.67;;;6.40;99.90;;;;;;5026200;28;20022;-73
2022/01/24 04:27:09;;;;;;;47.83;26.73;;;6.30;99.90;;;;;;5021638;28;20040;-73
2022/01/24 04:29:35;;;;;;;46.28;25.75;;;6.30;99.90;;;;;;5022632;28;20026;-73
2022/01/24 04:32:01;;;;;;;44.40;25.63;;;6.30;99.90;;;;;;5025908;28;20025;-73
2022/01/24 04:34:27;;;;;;;48.03;27.08;;;6.30;99.90;;;;;;5013247;28;20018;-73
2022/01/24 04:36:53;;;;;;;47.42;25.73;;;6.40;99.90;;;;;;5020650;28;20025;-73
2022/01/24 04:39:19;;;;;;;45.67;25.20;;;6.30;99.90;;;;;;5032838;28;20029;-73
2022/01/24 04:41:48;;;;;;;45.28;25.95;;;6.30;99.90;;;;;;5032840;28;20033;-73
2022/01/24 04:46:59;;;;;;;45.03;25.63;;;6.30;99.90;;;;;;5032027;28;20487;-73
2022/01/24 04:57:03;;;;;;;45.63;26.08;;;6.30;99.90;;;;;;5023426;28;20029;-73
2022/01/24 04:59:29;;;;;;;48.40;26.25;;;6.30;99.90;;;;;;5012846;28;20029;-73
2022/01/24 05:01:54;;;;;;;46.05;25.60;;;6.30;99.90;;;;;;5027502;28;20143;-73
2022/01/24 05:04:20;;;;;;;50.35;27.48;;;6.30;99.90;;;;;;5032139;28;20037;-73
2022/01/24 05:06:45;;;;;;;46.72;26.17;;;6.30;99.90;;;;;;5031348;28;20034;-73
2022/01/24 05:09:11;;;;;;;46.72;26.75;;;6.30;99.90;;;;;;5024154;28;20130;-73
2022/01/24 05:24:47;;;;;;;44.80;25.83;;;6.20;99.90;;;;;;5036110;28;20052;-73
2022/01/24 05:27:12;;;;;;;45.47;25.15;;;6.20;99.90;;;;;;5028588;28;20483;-73
2022/01/24 05:29:38;;;;;;;43.53;25.73;;;6.20;99.90;;;;;;5034276;28;20540;-73
2022/01/24 05:32:05;;;;;;;45.67;24.90;;;6.20;99.90;;;;;;5027098;28;20044;-73
2022/01/24 05:34:31;;;;;;;43.17;24.38;;;6.30;99.90;;;;;;5032664;28;20589;-73
2022/01/24 05:36:57;;;;;;;44.88;25.23;;;6.20;99.90;;;;;;5034411;28;20024;-73
2022/01/24 05:39:22;;;;;;;42.28;24.67;;;6.20;99.90;;;;;;5027401;28;20032;-73
2022/01/24 05:41:48;;;;;;;42.35;24.17;;;6.20;99.90;;;;;;5036365;28;20386;-73
2022/01/24 05:44:14;;;;;;;47.40;26.25;;;6.20;99.90;;;;;;5031570;28;20037;-73
2022/01/24 05:46:39;;;;;;;44.92;24.75;;;6.20;99.90;;;;;;5040960;28;20108;-73
2022/01/24 05:49:05;;;;;;;44.80;25.65;;;6.20;99.90;;;;;;5043327;28;20025;-73
2022/01/24 05:51:31;;;;;;;51.40;26.73;;;6.20;99.90;;;;;;5030991;28;20466;-74
2022/01/24 05:53:57;;;;;;;50.30;27.42;;;6.20;99.90;;;;;;5030996;28;20031;-74
2022/01/24 05:56:23;;;;;;;48.47;26.90;;;6.20;99.90;;;;;;5030957;28;20047;-75
2022/01/24 05:58:49;;;;;;;45.58;26.30;;;6.20;99.90;;;;;;5035075;28;20420;-74
2022/01/24 06:01:14;;;;;;;45.10;26.27;;;6.20;99.90;;;;;;5036853;28;20102;-74
2022/01/24 06:03:40;;;;;;;50.47;26.80;;;6.20;99.90;;;;;;5033441;28;20049;-74
2022/01/24 06:06:08;;;;;;;48.58;27.85;;;6.20;99.90;;;;;;5031736;28;20037;-74
2022/01/24 06:08:34;;;;;;;53.72;29.52;;;6.20;99.90;;;;;;5036963;28;20021;-73
2022/01/24 06:10:59;;;;;;;59.05;31.00;;;6.20;99.90;;;;;;5035180;28;20026;-73
2022/01/24 06:13:26;;;;;;;61.35;32.90;;;6.20;99.90;;;;;;5028228;28;20751;-73
2022/01/24 06:15:52;;;;;;;58.55;30.80;;;6.10;99.90;;;;;;5035311;28;20029;-73
2022/01/24 06:18:18;;;;;;;61.42;31.70;;;6.10;99.90;;;;;;5029973;28;20030;-73
2022/01/24 06:20:44;;;;;;;62.58;33.45;;;6.10;99.90;;;;;;5030478;28;20368;-72
2022/01/24 06:23:16;;;;;;;63.42;33.45;;;6.20;99.90;;;;;;5030985;28;20029;-73
2022/01/24 06:25:42;;;;;;;57.85;32.25;;;6.10;99.90;;;;;;5034295;28;20044;-73
2022/01/24 06:28:08;;;;;;;60.75;32.75;;;6.10;99.90;;;;;;5034341;28;20155;-73
2022/01/24 06:30:34;;;;;;;66.97;35.15;;;6.10;99.90;;;;;;5036959;28;20112;-72
2022/01/24 06:32:59;;;;;;;64.78;35.58;;;6.10;99.90;;;;;;5046178;28;20022;-73
2022/01/24 06:35:25;;;;;;;71.38;35.78;;;6.10;99.90;;;;;;5038621;28;20056;-72
2022/01/24 06:37:51;;;;;;;70.95;36.20;;;6.10;99.90;;;;;;5036087;28;20116;-73
2022/01/24 06:40:17;;;;;;;67.78;35.70;;;6.10;99.90;;;;;;5043286;28;20391;-73
2022/01/24 06:42:42;;;;;;;70.25;35.80;;;6.10;99.90;;;;;;5029766;28;20025;-74
2022/01/24 06:45:09;;;;;;;74.32;36.50;;;6.10;99.90;;;;;;5035299;28;20029;-73
2022/01/24 06:47:35;;;;;;;70.68;35.50;;;6.10;99.90;;;;;;5032354;28;20022;-73
2022/01/24 06:50:01;;;;;;;70.82;37.50;;;6.10;99.90;;;;;;5032389;28;20042;-73
2022/01/24 06:52:26;;;;;;;68.53;36.40;;;6.10;99.90;;;;;;5032300;28;20068;-72
2022/01/24 06:54:52;;;;;;;77.72;39.08;;;6.10;99.90;;;;;;5014544;28;20034;-72
2022/01/24 06:57:18;;;;;;;74.88;37.70;;;6.10;99.90;;;;;;5023261;28;20061;-72
2022/01/24 06:59:45;;;;;;;81.82;39.25;;;6.10;99.90;;;;;;5015263;28;20026;-73
2022/01/24 07:02:12;;;;;;;74.43;37.35;;;6.10;99.90;;;;;;5020031;28;20045;-73
2022/01/24 07:04:39;;;;;;;79.68;40.08;;;6.10;99.90;;;;;;5036876;28;20139;-73
2022/01/24 07:07:09;;;;;;;77.82;38.58;;;6.10;99.90;;;;;;5038455;28;20017;-73
2022/01/24 07:09:35;;;;;;;80.05;40.60;;;6.10;99.90;;;;;;5032400;28;20463;-72
2022/01/24 07:12:01;;;;;;;87.65;42.33;;;6.00;99.90;;;;;;5037826;28;20029;-73
2022/01/24 07:14:26;;;;;;;79.07;40.38;;;6.10;99.90;;;;;;5037334;28;20036;-73
2022/01/24 07:19:22;;;;;;;73.95;37.15;;;6.00;99.90;;;;;;5032361;28;20036;-73
2022/01/24 07:21:48;;;;;;;71.32;37.58;;;6.00;99.90;;;;;;5028800;28;20037;-73
2022/01/24 07:24:13;;;;;;;75.65;39.13;;;6.00;99.90;;;;;;5034177;28;20033;-73
2022/01/24 07:26:39;;;;;;;83.63;41.03;;;6.00;99.90;;;;;;5025449;28;20033;-73
2022/01/24 07:29:05;;;;;;;79.75;40.13;;;6.00;99.90;;;;;;5035351;28;20017;-73
2022/01/24 07:31:30;;;;;;;79.25;39.60;;;6.00;99.90;;;;;;5030395;28;20024;-73
2022/01/24 07:33:56;;;;;;;77.38;39.05;;;6.00;99.90;;;;;;5035350;28;20029;-73
2022/01/24 07:36:23;;;;;;;78.28;40.50;;;6.00;99.90;;;;;;5035355;28;20034;-72
2022/01/24 07:38:48;;;;;;;83.13;40.97;;;6.00;99.90;;;;;;5039420;28;20033;-73
2022/01/24 07:41:17;;;;;;;81.97;41.55;;;6.00;99.90;;;;;;5037958;28;20146;-73
2022/01/24 07:43:43;;;;;;;84.65;41.88;;;6.00;99.90;;;;;;5033875;28;20033;-72
2022/01/24 07:46:09;;;;;;;83.68;41.67;;;6.00;99.90;;;;;;5029485;28;20037;-72
2022/01/24 07:48:35;;;;;;;89.50;42.00;;;6.00;99.90;;;;;;5029461;28;20045;-73
2022/01/24 07:51:00;;;;;;;80.82;40.63;;;6.00;99.90;;;;;;5031577;28;20034;-73
2022/01/24 07:53:26;;;;;;;78.53;40.58;;;6.00;99.90;;;;;;5030575;28;20045;-72
2022/01/24 07:55:53;;;;;;;79.20;40.65;;;6.00;99.90;;;;;;5042663;28;20488;-73
2022/01/24 07:58:19;;;;;;;82.43;40.53;;;6.00;99.90;;;;;;5035583;28;20021;-73
2022/01/24 08:00:45;;;;;;;81.18;40.33;;;6.00;99.90;;;;;;5036331;28;20350;-72
2022/01/24 08:03:11;;;;;;;79.55;40.42;;;6.00;99.90;;;;;;5044494;28;20035;-73
2022/01/24 08:05:37;;;;;;;81.22;39.17;;;6.00;99.90;;;;;;5045949;28;20479;-72
2022/01/24 08:08:03;;;;;;;76.20;38.58;;;6.00;99.90;;;;;;5032729;28;20026;-72
2022/01/24 08:10:29;;;;;;;73.03;36.92;;;6.00;99.90;;;;;;5018974;28;20120;-73
2022/01/24 08:12:55;;;;;;;78.95;39.97;;;6.00;99.90;;;;;;5015414;28;20097;-73
2022/01/24 08:15:21;;;;;;;78.35;39.80;;;6.00;99.90;;;;;;5012721;28;20022;-73
2022/01/24 08:17:47;;;;;;;80.22;39.67;;;6.00;99.90;;;;;;5013197;28;20099;-73
2022/01/24 08:20:14;;;;;;;85.32;41.15;;;6.00;99.90;;;;;;5032405;28;20026;-73
2022/01/24 08:22:41;;;;;;;79.72;41.15;;;6.00;99.90;;;;;;5032545;28;20013;-73
2022/01/24 08:25:08;;;;;;;75.43;38.33;;;6.00;99.90;;;;;;5027623;28;20034;-73
2022/01/24 08:27:35;;;;;;;77.82;38.60;;;6.00;99.90;;;;;;5024318;28;20026;-72
2022/01/24 08:30:03;;;;;;;74.35;39.28;;;6.00;99.90;;;;;;5013052;28;20385;-73
2022/01/24 08:32:29;;;;;;;78.90;39.50;;;6.00;99.90;;;;;;5012626;28;20476;-73
2022/01/24 08:34:56;;;;;;;80.97;39.65;;;6.00;99.90;;;;;;5010052;28;20030;-72
2022/01/24 08:37:22;;;;;;;78.60;41.08;;;6.00;99.90;;;;;;5023428;28;20025;-73
2022/01/24 08:39:48;;;;;;;81.43;39.90;;;6.00;99.90;;;;;;5012788;28;20100;-73
2022/01/24 08:42:29;;;;;;;74.75;38.55;;;6.00;99.90;;;;;;5012164;28;20030;-72
2022/01/24 08:47:26;;;;;;;71.43;35.67;;;6.00;99.90;;;;;;5021917;28;20033;-73
2022/01/24 08:49:52;;;;;;;68.63;35.28;;;6.00;99.90;;;;;;5024199;28;20014;-73
2022/01/24 08:52:18;;;;;;;63.53;33.95;;;6.00;99.90;;;;;;5022165;28;20061;-72
2022/01/24 08:54:44;;;;;;;64.43;32.78;;;6.00;99.90;;;;;;5036250;28;20033;-73
2022/01/24 08:57:10;;;;;;;65.90;34.00;;;6.00;99.90;;;;;;5025563;28;20047;-73
2022/01/24 08:59:38;;;;;;;68.05;34.53;;;6.00;99.90;;;;;;5026909;28;20021;-73
2022/01/24 09:02:04;;;;;;;63.28;33.72;;;6.00;99.90;;;;;;5033134;28;20556;-72
2022/01/24 09:04:30;;;;;;;63.03;33.28;;;6.00;99.90;;;;;;5032618;28;20066;-73
2022/01/24 09:06:59;;;;;;;59.65;31.20;;;6.00;99.90;;;;;;5039787;28;20030;-73
2022/01/24 09:09:25;;;;;;;61.97;33.38;;;6.00;99.90;;;;;;5029606;28;20033;-72
2022/01/24 09:11:51;;;;;;;60.40;32.08;;;6.00;99.90;;;;;;5034133;28;20060;-72
2022/01/24 09:14:16;;;;;;;56.92;30.95;;;6.00;99.90;;;;;;5031787;28;20530;-72
2022/01/24 09:16:42;;;;;;;60.03;32.17;;;6.00;99.90;;;;;;5034469;28;20032;-72
2022/01/24 09:19:07;;;;;;;60.80;32.60;;;6.00;99.90;;;;;;5045794;28;20089;-72
2022/01/24 09:21:34;;;;;;;61.22;31.98;;;6.00;99.90;;;;;;5046286;28;20490;-72
2022/01/24 09:24:01;;;;;;;63.80;33.20;;;6.10;99.90;;;;;;5012733;28;20018;-72
2022/01/24 09:26:27;;;;;;;56.03;31.25;;;6.10;99.90;;;;;;5023909;28;20045;-73
2022/01/24 09:28:52;;;;;;;57.50;30.40;;;6.10;99.90;;;;;;5031069;28;20438;-73
2022/01/24 09:31:18;;;;;;;56.45;30.40;;;6.10;99.90;;;;;;5028642;28;20290;-72
2022/01/24 09:33:44;;;;;;;57.42;30.42;;;6.10;99.90;;;;;;5031382;28;20022;-72
2022/01/24 09:36:10;;;;;;;53.95;29.73;;;6.10;99.90;;;;;;5031439;28;20030;-72
2022/01/24 09:38:36;;;;;;;55.15;30.73;;;6.10;99.90;;;;;;5027848;28;20018;-72
2022/01/24 09:41:08;;;;;;;57.15;30.52;;;6.10;99.90;;;;;;5011857;28;20018;-72
2022/01/24 09:43:34;;;;;;;56.17;30.20;;;6.20;99.90;;;;;;5018299;28;20520;-73
2022/01/24 09:46:00;;;;;;;61.17;32.67;;;6.20;99.90;;;;;;5011437;28;20025;-73
2022/01/24 09:48:26;;;;;;;62.08;32.85;;;6.20;99.90;;;;;;5018958;28;20072;-73
2022/01/24 09:50:53;;;;;;;62.53;32.70;;;6.20;99.90;;;;;;5030604;28;20025;-73
2022/01/24 09:53:23;;;;;;;62.42;31.35;;;6.30;99.90;;;;;;5031448;28;20020;-73
2022/01/24 09:55:49;;;;;;;59.45;32.20;;;6.30;99.90;;;;;;5027324;28;20076;-72
2022/01/24 09:58:15;;;;;;;62.80;33.13;;;6.20;99.90;;;;;;5027806;28;20038;-72
2022/01/24 10:00:43;;;;;;;59.55;31.90;;;6.30;99.90;;;;;;5031932;28;20070;-73
2022/01/24 10:03:12;;;;;;;59.92;31.73;;;6.30;99.90;;;;;;5029704;28;20037;-72
2022/01/24 10:05:42;;;;;;;61.38;31.45;;;6.30;99.90;;;;;;5028321;28;20389;-73
2022/01/24 10:08:13;;;;;;;60.15;32.70;;;6.30;99.90;;;;;;5033446;28;20040;-73
2022/01/24 10:10:49;;;;;;;57.72;31.67;;;6.30;99.90;;;;;;5034374;28;20106;-73
2022/01/24 10:19:02;;;;;;;65.05;34.00;;;6.30;99.90;;;;;;5038710;28;20056;-72
2022/01/24 10:21:28;;;;;;;61.65;32.47;;;6.30;99.90;;;;;;5030323;28;20018;-73
2022/01/24 10:23:56;;;;;;;62.35;33.03;;;6.30;99.90;;;;;;5030229;28;20026;-73
2022/01/24 10:26:24;;;;;;;62.72;33.20;;;6.40;99.90;;;;;;5031770;28;20033;-73
2022/01/24 10:28:51;;;;;;;60.95;33.30;;;6.40;99.90;;;;;;5028921;28;20045;-73
2022/01/24 10:31:24;;;;;;;67.80;34.90;;;6.40;99.90;;;;;;5022821;28;20089;-73
2022/01/24 10:34:06;;;;;;;70.68;35.83;;;6.40;99.90;;;;;;5010768;28;20018;-73
2022/01/24 10:36:40;;;;;;;72.35;36.30;;;6.50;99.90;;;;;;5010812;28;20030;-72
2022/01/24 10:39:07;;;;;;;69.85;35.80;;;6.50;99.90;;;;;;5026392;28;20029;-73
2022/01/24 10:41:57;;;;;;;70.03;36.03;;;6.50;99.90;;;;;;5031535;28;20192;-73
2022/01/24 10:44:31;;;;;;;69.70;35.65;;;6.50;99.90;;;;;;5030945;28;20026;-73
2022/01/24 10:47:12;;;;;;;68.73;35.93;;;6.50;99.90;;;;;;5032313;28;20030;-73
2022/01/24 10:49:38;;;;;;;69.47;37.55;;;6.50;99.90;;;;;;5027171;28;20442;-73
2022/01/24 10:52:18;;;;;;;71.28;36.45;;;6.50;99.90;;;;;;5026190;28;20026;-73
2022/01/24 10:54:44;;;;;;;64.25;34.63;;;6.50;99.90;;;;;;5030675;28;20033;-74
2022/01/24 10:57:20;;;;;;;69.75;36.15;;;6.50;99.90;;;;;;5031053;28;20017;-73
2022/01/24 10:59:46;;;;;;;67.82;36.10;;;6.60;99.90;;;;;;5030996;28;20021;-73
2022/01/24 11:02:16;;;;;;;74.30;36.58;;;6.60;99.90;;;;;;5032915;28;20038;-73
2022/01/24 11:04:42;;;;;;;78.95;39.50;;;6.60;99.90;;;;;;5017320;28;20099;-73
2022/01/24 11:07:07;;;;;;;74.40;36.72;;;6.60;99.90;;;;;;5030982;28;20025;-73
2022/01/24 11:09:35;;;;;;;68.43;35.95;;;6.60;99.90;;;;;;5020409;28;20049;-73
2022/01/24 11:12:05;;;;;;;66.70;34.13;;;6.60;99.90;;;;;;5036674;28;20045;-73
2022/01/24 11:14:32;;;;;;;66.03;34.60;;;6.60;99.90;;;;;;5033668;28;20022;-73
2022/01/24 11:16:59;;;;;;;67.38;35.10;;;6.60;99.90;;;;;;5034878;28;20482;-73
2022/01/24 11:19:35;;;;;;;66.90;36.42;;;6.60;99.90;;;;;;5042307;28;20079;-73
2022/01/24 11:22:06;;;;;;;68.60;35.72;;;6.70;99.90;;;;;;5044614;28;20064;-73
2022/01/24 11:27:05;;;;;;;66.43;34.25;;;6.70;99.90;;;;;;5039223;28;20084;-73
2022/01/24 11:29:32;;;;;;;69.40;35.67;;;6.70;99.90;;;;;;5038974;28;20029;-73
2022/01/24 11:32:07;;;;;;;66.05;35.25;;;6.80;99.90;;;;;;5029008;28;20053;-73
2022/01/24 11:34:40;;;;;;;67.28;35.30;;;6.80;99.90;;;;;;5024963;28;20032;-73
2022/01/24 11:37:07;;;;;;;68.22;36.63;;;6.90;99.90;;;;;;5028971;28;20025;-73
2022/01/24 11:39:34;;;;;;;68.80;35.13;;;6.90;99.90;;;;;;5034098;28;20356;-73
2022/01/24 11:42:02;;;;;;;67.07;35.70;;;6.90;99.90;;;;;;5034568;28;20784;-73
2022/01/24 11:44:46;;;;;;;70.90;36.75;;;6.90;99.90;;;;;;5030416;28;20081;-73
2022/01/24 11:47:23;;;;;;;70.28;36.72;;;6.90;99.90;;;;;;5023631;28;20026;-73
2022/01/24 11:49:54;;;;;;;68.82;36.30;;;6.90;99.90;;;;;;5020095;28;20025;-73
2022/01/24 11:52:31;;;;;;;68.28;34.63;;;6.90;99.90;;;;;;5037416;28;20044;-73
2022/01/24 11:55:16;;;;;;;71.53;36.33;;;6.90;99.90;;;;;;5045513;28;20056;-73
2022/01/24 11:57:47;;;;;;;70.35;36.63;;;6.90;99.90;;;;;;5040624;28;20086;-73
2022/01/24 12:00:19;;;;;;;64.93;35.67;;;6.90;99.90;;;;;;5040869;28;20135;-73
2022/01/24 12:02:49;;;;;;;70.05;36.80;;;7.00;99.90;;;;;;5033803;28;20463;-73
2022/01/24 12:05:26;;;;;;;69.43;34.65;;;7.00;99.90;;;;;;5029132;28;20037;-73
2022/01/24 12:07:53;;;;;;;67.60;35.28;;;7.00;99.90;;;;;;5027992;28;20394;-73
2022/01/24 12:10:22;;;;;;;66.10;36.00;;;7.00;99.90;;;;;;5032840;28;20029;-73
2022/01/24 12:12:50;;;;;;;67.05;35.75;;;7.00;99.90;;;;;;5034421;28;20025;-73
2022/01/24 12:15:38;;;;;;;66.65;34.92;;;7.00;99.90;;;;;;5052152;28;20021;-75
2022/01/24 12:18:10;;;;;;;67.30;34.67;;;6.90;99.90;;;;;;5034250;28;20506;-73
2022/01/24 12:20:35;;;;;;;67.15;34.90;;;6.90;99.90;;;;;;5015584;28;20728;-73
2022/01/24 12:23:16;;;;;;;64.57;35.25;;;6.90;99.90;;;;;;5012828;28;20021;-73
2022/01/24 12:26:02;;;;;;;64.93;35.40;;;6.90;99.90;;;;;;5030567;28;20041;-74
2022/01/24 12:28:29;;;;;;;67.88;35.83;;;6.90;99.90;;;;;;5029762;28;20017;-73
2022/01/24 12:31:08;;;;;;;71.55;36.95;;;7.00;99.90;;;;;;5036433;28;20112;-74
2022/01/24 12:33:51;;;;;;;72.45;36.20;;;7.00;99.90;;;;;;5014087;28;20108;-73
2022/01/24 12:36:36;;;;;;;67.57;35.72;;;7.00;99.90;;;;;;5014652;28;20029;-73
2022/01/24 12:39:16;;;;;;;72.47;36.83;;;7.00;99.90;;;;;;5032399;28;20100;-73
2022/01/24 12:41:49;;;;;;;73.63;37.90;;;7.10;99.90;;;;;;5033114;28;20029;-73
2022/01/24 12:47:01;;;;;;;71.85;37.30;;;7.10;99.90;;;;;;5023750;28;20405;-73
2022/01/24 12:49:30;;;;;;;71.28;37.03;;;7.10;99.90;;;;;;5012148;28;20029;-73
2022/01/24 12:52:02;;;;;;;75.35;37.60;;;7.10;99.90;;;;;;5027059;28;20478;-73
2022/01/24 12:54:33;;;;;;;70.82;37.53;;;7.10;99.90;;;;;;5028181;28;20095;-73
2022/01/24 12:57:00;;;;;;;74.97;38.10;;;7.10;99.90;;;;;;5026241;28;20029;-73
2022/01/24 12:59:25;;;;;;;67.38;37.67;;;7.10;99.90;;;;;;5031825;28;20471;-73
2022/01/24 13:01:55;;;;;;;74.28;38.70;;;7.10;99.90;;;;;;5031568;28;20049;-73
2022/01/24 13:04:39;;;;;;;70.90;38.63;;;7.10;99.90;;;;;;5031376;28;20022;-73
2022/01/24 13:07:07;;;;;;;74.40;40.17;;;7.10;99.90;;;;;;5016109;28;20034;-73
2022/01/24 13:09:35;;;;;;;77.68;40.85;;;7.10;99.90;;;;;;5022578;28;20057;-73
2022/01/24 13:12:08;;;;;;;78.38;40.28;;;7.00;99.90;;;;;;5032152;28;20027;-73
2022/01/24 13:25:17;;;;;;;77.45;40.67;;;7.00;99.90;;;;;;5013579;28;20112;-73
2022/01/24 13:27:51;;;;;;;76.40;40.17;;;7.10;99.90;;;;;;5030889;28;20028;-73
2022/01/24 13:30:24;;;;;;;78.25;40.92;;;7.10;99.90;;;;;;5030546;28;20493;-73
2022/01/24 13:32:52;;;;;;;75.35;40.05;;;7.10;99.90;;;;;;5032414;28;20064;-73
2022/01/24 13:35:23;;;;;;;79.22;39.72;;;7.10;99.90;;;;;;5034611;28;20017;-73
2022/01/24 13:37:49;;;;;;;74.28;39.67;;;7.10;99.90;;;;;;5029494;28;20025;-73
2022/01/24 13:40:30;;;;;;;72.93;38.85;;;7.20;99.90;;;;;;5032507;28;20083;-73
2022/01/24 13:42:56;;;;;;;74.38;39.67;;;7.20;99.90;;;;;;5032168;28;20390;-73
2022/01/24 13:45:22;;;;;;;74.03;38.50;;;7.20;99.90;;;;;;5035250;28;20036;-74
2022/01/24 13:47:58;;;;;;;75.40;39.75;;;7.20;99.90;;;;;;5030894;28;20018;-73
2022/01/24 13:50:25;;;;;;;72.13;39.60;;;7.20;99.90;;;;;;5032065;28;20096;-73
2022/01/24 13:52:51;;;;;;;78.32;40.53;;;7.20;99.90;;;;;;5018541;28;20080;-74
2022/01/24 13:55:19;;;;;;;69.57;38.33;;;7.20;99.90;;;;;;5011615;28;20037;-72
2022/01/24 13:57:50;;;;;;;72.50;38.47;;;7.20;99.90;;;;;;5014061;28;20117;-72
2022/01/24 14:00:23;;;;;;;72.20;39.72;;;7.20;99.90;;;;;;5034181;28;20057;-72
2022/01/24 14:02:50;;;;;;;77.65;39.70;;;7.20;99.90;;;;;;5038427;28;20124;-74
2022/01/24 14:05:16;;;;;;;75.57;38.33;;;7.20;99.90;;;;;;5031586;28;20064;-72
2022/01/24 14:07:42;;;;;;;75.03;39.47;;;7.10;99.90;;;;;;5030174;28;20463;-71
2022/01/24 14:10:13;;;;;;;71.50;37.63;;;7.10;99.90;;;;;;5030802;28;20029;-72
2022/01/24 14:12:47;;;;;;;73.03;37.40;;;7.10;99.90;;;;;;5018840;28;20262;-71
2022/01/24 14:15:45;;;;;;;70.25;37.42;;;7.00;99.90;;;;;;5011471;28;20026;-72
2022/01/24 14:18:25;;;;;;;67.32;37.08;;;6.90;99.90;;;;;;5011919;28;20104;-72
2022/01/24 14:21:07;;;;;;;70.53;37.47;;;6.90;99.90;;;;;;5023248;28;20025;-72
2022/01/24 14:23:35;;;;;;;67.45;36.00;;;6.90;99.90;;;;;;5031292;28;20037;-72
2022/01/24 14:26:20;;;;;;;67.47;35.13;;;6.90;99.90;;;;;;5011312;28;20040;-72
2022/01/24 14:28:48;;;;;;;64.85;34.70;;;6.90;99.90;;;;;;5020694;28;20022;-72
2022/01/24 14:31:15;;;;;;;67.43;35.03;;;6.90;99.90;;;;;;5031006;28;20033;-72
2022/01/24 14:33:42;;;;;;;61.80;34.38;;;6.90;99.90;;;;;;5019436;28;20025;-72
2022/01/24 14:36:15;;;;;;;64.22;35.20;;;6.90;99.90;;;;;;5020508;28;20025;-72
2022/01/24 14:38:46;;;;;;;64.13;33.78;;;6.90;99.90;;;;;;5019193;28;20030;-72
2022/01/24 14:41:19;;;;;;;64.60;34.67;;;6.80;99.90;;;;;;5027078;28;20030;-72
2022/01/24 14:46:42;;;;;;;62.75;34.05;;;6.80;99.90;;;;;;5035060;28;20079;-72
2022/01/24 14:49:37;;;;;;;62.53;33.63;;;6.80;99.90;;;;;;5035530;28;20501;-72
2022/01/24 14:52:06;;;;;;;67.95;34.95;;;6.80;99.90;;;;;;5007277;28;20116;-72
2022/01/24 14:54:34;;;;;;;62.90;34.42;;;6.80;99.90;;;;;;5036762;28;20403;-72
2022/01/24 14:57:02;;;;;;;62.40;34.42;;;6.80;99.90;;;;;;5031982;28;20021;-72
2022/01/24 14:59:28;;;;;;;60.40;32.95;;;6.80;99.90;;;;;;5011875;28;20387;-72
2022/01/24 15:01:55;;;;;;;63.28;33.70;;;6.70;99.90;;;;;;5038392;28;20048;-71
2022/01/24 15:04:22;;;;;;;63.95;34.72;;;6.70;99.90;;;;;;5032287;28;20475;-72